Cavour, South Dakota
Current Conditions -  °F | °C
As of 7:55 PM on Friday 24 Oct 2014 (Local Time) from KHON Reporting Station
Clear Clear  
Wind Chill: 54°   Ceiling: Unl
Heat Index: 54°   Visibility: 10mi
Dew Point: 36°   Wind: 9mph
Humidity: 51%   Direction: 330°NNW
Pressure: 29.95"   Gusts: NA
Location:  44.37°N, 98.04°W
Report Text: KHON 250055Z AUTO 33008KT 10SM CLR 12/02 A2995 RMK AO2 SLP148 T01220022
Loading
Personal Weather Stations






























Interactive Weather Map
Tropical Storm Tracking
New forecast layout! Learn more

10-Day Weather Forecast

Advertisements
Track Severe Weather on mobile